Time;durP1;ratioP1;P1;durP2;ratioP2;P2;SDS_P1;SDS_P2;PMS_P1;PMS_P2;Temp;Humidity;BMP_temperature;BMP_pressure;BME280_temperature;BME280_humidity;BME280_pressure;Samples;Min_cycle;Max_cycle;Signal;HPM_P1;HPM_P2
2022/01/27 00:01:51;;;;;;;30.90;22.60;;;;;;;3.21;72.83;96719.34;5027407;28;20280;-80
2022/01/27 00:04:22;;;;;;;28.97;21.33;;;;;;;3.20;72.44;96706.72;5029795;28;20272;-80
2022/01/27 00:06:48;;;;;;;34.23;22.73;;;;;;;3.21;72.54;96708.34;5033742;28;20234;-80
2022/01/27 00:09:23;;;;;;;31.03;21.43;;;;;;;3.20;72.51;96704.97;5033997;28;20205;-80
2022/01/27 00:11:49;;;;;;;34.13;23.27;;;;;;;3.24;72.26;96710.69;5033978;28;20198;-80
2022/01/27 00:14:19;;;;;;;33.40;23.10;;;;;;;3.18;72.52;96717.00;5034176;28;20314;-80
2022/01/27 00:16:54;;;;;;;32.73;22.37;;;;;;;3.20;72.53;96724.53;5032801;28;20222;-80
2022/01/27 00:19:21;;;;;;;32.40;22.17;;;;;;;3.22;72.78;96722.69;5033383;28;20198;-80
2022/01/27 00:21:48;;;;;;;34.00;21.67;;;;;;;3.27;72.64;96713.03;5033405;28;20194;-80
2022/01/27 00:24:16;;;;;;;34.50;22.10;;;;;;;3.28;72.17;96707.81;5033354;28;20222;-80
2022/01/27 00:26:43;;;;;;;31.97;22.30;;;;;;;3.29;72.50;96703.53;5032773;28;20310;-80
2022/01/27 00:29:09;;;;;;;31.63;21.87;;;;;;;3.27;72.23;96702.84;5033529;28;20209;-80
2022/01/27 00:31:36;;;;;;;33.40;22.70;;;;;;;3.32;72.38;96696.50;5033012;28;20669;-80
2022/01/27 00:34:04;;;;;;;33.13;22.87;;;;;;;3.30;72.46;96694.97;5033407;28;20214;-80
2022/01/27 00:36:30;;;;;;;33.87;23.77;;;;;;;3.36;72.17;96689.47;5030914;28;20228;-80
2022/01/27 00:38:57;;;;;;;33.83;23.33;;;;;;;3.34;72.53;96684.50;5033310;28;20588;-80
2022/01/27 00:41:24;;;;;;;32.80;22.47;;;;;;;3.28;72.37;96699.34;5032956;28;20213;-80
2022/01/27 00:43:51;;;;;;;37.03;23.80;;;;;;;3.29;72.25;96711.16;5032941;28;20226;-80
2022/01/27 00:46:19;;;;;;;33.47;22.60;;;;;;;3.30;72.40;96707.69;5032755;28;20288;-80
2022/01/27 00:48:46;;;;;;;34.30;23.13;;;;;;;3.35;72.47;96716.66;5032294;28;20236;-80
2022/01/27 00:51:16;;;;;;;33.00;22.87;;;;;;;3.32;72.50;96724.50;5033127;28;20206;-80
2022/01/27 00:53:48;;;;;;;32.83;22.47;;;;;;;3.33;72.17;96725.31;5031967;28;20226;-80
2022/01/27 00:56:23;;;;;;;35.83;23.57;;;;;;;3.34;71.93;96721.84;5032996;28;20555;-80
2022/01/27 00:59:00;;;;;;;33.17;23.27;;;;;;;3.31;72.06;96714.41;5007011;28;20237;-80
2022/01/27 01:01:32;;;;;;;33.40;22.43;;;;;;;3.33;72.15;96710.03;5032539;28;20206;-80
2022/01/27 01:04:02;;;;;;;31.63;22.17;;;;;;;3.31;71.95;96717.78;5031256;28;20230;-80
2022/01/27 01:06:39;;;;;;;31.40;23.07;;;;;;;3.30;71.73;96713.59;5032024;28;20268;-80
2022/01/27 01:14:50;;;;;;;33.87;24.20;;;;;;;3.33;71.94;96699.88;5032497;28;20260;-80
2022/01/27 01:17:39;;;;;;;32.83;22.13;;;;;;;3.39;71.72;96702.00;5032687;28;20748;-80
2022/01/27 01:20:28;;;;;;;33.93;23.43;;;;;;;3.42;71.46;96689.88;5029692;28;20230;-80
2022/01/27 01:31:16;;;;;;;33.17;22.87;;;;;;;3.24;72.33;96680.97;5012357;28;20267;-80
2022/01/27 01:33:45;;;;;;;34.67;23.73;;;;;;;3.12;72.51;96692.75;5029986;28;20648;-80
2022/01/27 01:36:26;;;;;;;37.43;23.33;;;;;;;3.13;72.32;96689.31;5032343;28;20206;-80
2022/01/27 01:38:52;;;;;;;35.90;23.37;;;;;;;3.10;72.93;96686.97;5032445;28;20233;-80
2022/01/27 01:41:19;;;;;;;33.63;23.07;;;;;;;3.13;72.64;96689.31;5032449;28;20206;-80
2022/01/27 01:43:45;;;;;;;34.93;23.63;;;;;;;3.18;72.41;96703.47;5031662;28;20234;-80
2022/01/27 01:46:13;;;;;;;32.87;22.90;;;;;;;3.19;72.62;96710.19;5032557;28;20217;-80
2022/01/27 01:48:39;;;;;;;33.10;22.77;;;;;;;3.22;72.60;96705.69;5032583;28;20297;-80
2022/01/27 01:51:06;;;;;;;32.17;22.20;;;;;;;3.21;72.18;96709.16;5032463;28;20202;-80
2022/01/27 01:53:32;;;;;;;34.93;24.27;;;;;;;3.33;71.93;96697.31;5033468;28;20237;-80
2022/01/27 01:55:59;;;;;;;36.33;24.10;;;;;;;3.41;71.81;96692.53;5036732;28;20202;-80
2022/01/27 01:58:25;;;;;;;35.90;23.13;;;;;;;3.39;71.92;96697.72;5036201;28;20332;-80
2022/01/27 02:00:52;;;;;;;34.07;23.50;;;;;;;3.40;71.31;96689.16;5036677;28;20205;-80
2022/01/27 02:03:20;;;;;;;32.23;22.70;;;;;;;3.40;71.22;96684.09;5035130;28;20222;-80
2022/01/27 02:05:52;;;;;;;34.93;23.53;;;;;;;3.38;71.72;96692.75;5045613;22;20326;-83
2022/01/27 02:19:30;;;;;;;33.60;23.23;;;;;;;3.22;72.03;96694.69;4993870;28;20250;-83
2022/01/27 02:21:59;;;;;;;36.30;24.17;;;;;;;3.22;71.77;96692.16;4994086;28;20218;-84
2022/01/27 02:24:28;;;;;;;33.53;22.50;;;;;;;3.24;72.00;96680.97;4973224;28;20239;-84
2022/01/27 02:26:55;;;;;;;35.03;23.47;;;;;;;3.32;71.53;96675.31;4979474;28;20216;-83
2022/01/27 02:29:23;;;;;;;35.23;24.37;;;;;;;3.37;71.39;96674.09;4993689;28;20702;-83
2022/01/27 02:31:51;;;;;;;32.57;23.43;;;;;;;3.35;71.16;96670.84;4994221;28;20199;-83
2022/01/27 02:34:18;;;;;;;32.37;22.87;;;;;;;3.33;71.19;96666.78;4993027;28;20227;-81
2022/01/27 02:36:44;;;;;;;31.87;22.73;;;;;;;3.33;71.17;96661.69;4994017;28;20231;-84
2022/01/27 02:39:13;;;;;;;33.13;22.93;;;;;;;3.31;70.90;96659.25;4993475;28;20210;-85
2022/01/27 02:41:46;;;;;;;30.83;22.77;;;;;;;3.26;70.95;96666.41;4993707;28;20207;-83
2022/01/27 02:44:20;;;;;;;31.27;22.73;;;;;;;3.23;71.19;96660.72;4993058;28;20246;-83
2022/01/27 02:46:48;;;;;;;33.73;23.33;;;;;;;3.21;71.38;96660.81;4993253;28;20716;-84
2022/01/27 02:49:14;;;;;;;32.27;23.83;;;;;;;3.24;71.21;96658.06;4993622;28;20199;-83
2022/01/27 02:51:41;;;;;;;33.43;22.57;;;;;;;3.19;71.22;96664.38;4993716;28;20208;-84
2022/01/27 02:54:07;;;;;;;30.73;22.97;;;;;;;3.18;71.59;96661.00;4993622;28;20235;-83
2022/01/27 02:56:38;;;;;;;32.00;23.13;;;;;;;3.18;71.49;96660.19;4994192;28;20874;-84
2022/01/27 02:59:05;;;;;;;30.13;22.63;;;;;;;3.15;71.44;96666.31;4991657;28;20227;-83
2022/01/27 03:01:31;;;;;;;33.93;23.13;;;;;;;3.03;71.58;96652.69;4996056;28;20211;-84
2022/01/27 03:03:58;;;;;;;31.77;23.27;;;;;;;2.99;71.59;96653.00;4986654;28;20250;-84
2022/01/27 03:06:24;;;;;;;36.00;24.67;;;;;;;3.02;72.03;96645.97;4995241;28;20715;-84
2022/01/27 03:08:50;;;;;;;37.17;24.53;;;;;;;3.04;72.07;96645.88;4994679;28;20203;-84
2022/01/27 03:11:33;;;;;;;33.17;23.17;;;;;;;3.03;71.64;96639.97;4995870;28;20300;-83
2022/01/27 03:14:01;;;;;;;36.43;24.43;;;;;;;3.02;71.80;96645.16;5009793;28;20852;-84
2022/01/27 03:16:27;;;;;;;35.47;23.90;;;;;;;3.04;71.60;96641.59;5013709;28;20245;-84
2022/01/27 03:18:54;;;;;;;33.30;23.80;;;;;;;3.02;71.58;96633.25;4994704;28;20703;-82
2022/01/27 03:21:20;;;;;;;34.60;24.07;;;;;;;2.92;71.77;96633.97;4995362;28;20207;-84
2022/01/27 03:23:47;;;;;;;36.33;23.93;;;;;;;2.87;71.89;96624.13;4994537;28;20239;-84
2022/01/27 03:26:14;;;;;;;34.80;24.20;;;;;;;2.91;71.70;96627.25;4995308;28;20223;-83
2022/01/27 03:28:40;;;;;;;35.30;24.20;;;;;;;2.71;72.51;96634.50;4994156;28;20200;-83
2022/01/27 03:31:08;;;;;;;33.97;23.33;;;;;;;2.71;72.56;96626.88;4995601;28;20203;-84
2022/01/27 03:33:36;;;;;;;36.30;23.93;;;;;;;2.68;72.83;96628.81;4994821;28;20226;-84
2022/01/27 03:36:02;;;;;;;33.93;24.07;;;;;;;2.62;73.12;96634.31;4995189;28;20223;-84
2022/01/27 03:38:29;;;;;;;34.30;23.27;;;;;;;2.53;73.24;96635.72;4996252;28;20203;-83
2022/01/27 03:40:55;;;;;;;35.33;23.67;;;;;;;2.49;73.49;96636.03;4995402;28;20208;-83
2022/01/27 03:43:21;;;;;;;36.23;24.90;;;;;;;2.57;73.07;96626.16;4995247;28;20208;-84
2022/01/27 03:45:48;;;;;;;34.07;23.60;;;;;;;2.61;72.95;96617.41;4994315;28;20242;-83
2022/01/27 03:48:16;;;;;;;34.13;23.63;;;;;;;2.53;73.20;96609.47;4994871;28;20203;-84
2022/01/27 03:50:42;;;;;;;34.17;24.40;;;;;;;2.56;73.04;96619.44;4995326;28;20211;-83
2022/01/27 03:53:09;;;;;;;33.90;24.17;;;;;;;2.61;73.20;96632.69;4994793;28;20199;-83
2022/01/27 03:55:35;;;;;;;35.97;24.50;;;;;;;2.56;72.92;96638.06;4993519;28;20243;-83
2022/01/27 03:58:02;;;;;;;37.10;23.93;;;;;;;2.64;72.72;96645.19;4994505;28;20215;-84
2022/01/27 04:00:28;;;;;;;35.80;24.53;;;;;;;2.64;72.90;96647.72;4994601;28;20204;-83
2022/01/27 04:03:03;;;;;;;36.23;23.70;;;;;;;2.61;72.68;96637.75;4990215;28;20211;-84
2022/01/27 04:05:35;;;;;;;34.50;23.63;;;;;;;2.61;73.14;96650.47;4991801;28;20237;-83
2022/01/27 04:08:03;;;;;;;33.33;23.83;;;;;;;2.70;72.69;96644.75;4994312;28;20214;-83
2022/01/27 04:10:29;;;;;;;37.10;23.50;;;;;;;2.72;72.22;96631.03;4994949;28;20202;-84
2022/01/27 04:12:56;;;;;;;34.60;23.20;;;;;;;2.71;72.39;96628.59;4994529;28;20206;-84
2022/01/27 04:15:23;;;;;;;36.27;24.03;;;;;;;2.76;72.05;96618.94;4993097;28;20235;-84
2022/01/27 04:17:49;;;;;;;33.47;24.17;;;;;;;2.75;71.80;96614.75;4993402;28;20211;-83
2022/01/27 04:20:16;;;;;;;32.87;23.77;;;;;;;2.71;72.16;96613.34;4993721;28;20199;-83
2022/01/27 04:22:44;;;;;;;33.43;23.33;;;;;;;2.74;72.19;96615.69;4994866;28;20206;-83
2022/01/27 04:25:12;;;;;;;33.57;23.07;;;;;;;2.75;72.02;96610.50;4977982;28;20220;-84
2022/01/27 04:27:42;;;;;;;32.67;22.13;;;;;;;2.61;71.96;96602.97;4987536;28;20231;-84
2022/01/27 04:30:15;;;;;;;30.03;22.80;;;;;;;2.49;72.36;96608.09;4995976;28;20199;-83
2022/01/27 04:32:46;;;;;;;30.90;21.70;;;;;;;2.56;72.38;96606.75;4996656;28;20222;-84
2022/01/27 04:35:16;;;;;;;34.50;23.57;;;;;;;2.61;72.16;96614.88;4996264;28;20841;-83
2022/01/27 04:37:55;;;;;;;32.03;22.03;;;;;;;2.59;72.31;96609.09;4995188;28;20206;-84
2022/01/27 04:40:27;;;;;;;32.00;22.03;;;;;;;2.54;72.05;96599.22;4994488;28;20207;-83
2022/01/27 04:43:00;;;;;;;32.37;22.17;;;;;;;2.55;72.49;96598.31;4995332;28;20204;-83
2022/01/27 04:45:32;;;;;;;31.97;22.53;;;;;;;2.53;72.60;96589.97;4995591;28;20635;-84
2022/01/27 04:48:08;;;;;;;32.53;22.87;;;;;;;2.49;72.55;96583.47;4995723;28;20226;-84
2022/01/27 04:50:34;;;;;;;32.90;23.30;;;;;;;2.52;72.48;96582.44;4951428;28;20203;-84
2022/01/27 04:53:06;;;;;;;32.83;22.80;;;;;;;2.53;72.13;96573.91;4987031;28;20211;-84
2022/01/27 04:55:32;;;;;;;33.63;22.97;;;;;;;2.52;72.51;96577.34;4995199;28;20219;-83
2022/01/27 04:58:09;;;;;;;30.83;22.10;;;;;;;2.53;72.06;96581.53;4993999;28;20709;-83
2022/01/27 05:00:35;;;;;;;32.87;22.17;;;;;;;2.52;72.02;96575.63;4975170;28;20228;-84
2022/01/27 05:03:10;;;;;;;31.47;21.83;;;;;;;2.50;72.02;96574.13;4991183;28;20192;-83
2022/01/27 05:05:38;;;;;;;28.87;21.40;;;;;;;2.48;71.90;96578.50;4992617;28;20219;-84
2022/01/27 05:08:10;;;;;;;27.37;20.73;;;;;;;2.52;71.76;96582.44;4994007;28;20203;-84
2022/01/27 05:10:36;;;;;;;28.17;21.77;;;;;;;2.53;71.92;96581.53;4993529;28;20203;-84
2022/01/27 05:13:08;;;;;;;30.83;21.63;;;;;;;2.50;71.79;96580.03;4993344;28;20223;-84
2022/01/27 05:15:42;;;;;;;28.10;20.87;;;;;;;2.41;71.72;96570.47;4992841;28;20219;-84
2022/01/27 05:18:08;;;;;;;28.37;20.83;;;;;;;2.41;71.75;96567.91;4993132;28;20882;-84
2022/01/27 05:20:35;;;;;;;27.83;20.57;;;;;;;2.40;72.14;96556.94;4993010;28;20206;-84
2022/01/27 05:23:01;;;;;;;26.73;20.13;;;;;;;2.39;71.97;96557.03;4991936;28;20234;-84
2022/01/27 05:25:29;;;;;;;29.93;21.63;;;;;;;2.41;72.58;96561.09;4992907;28;20234;-83
2022/01/27 05:27:56;;;;;;;28.80;21.87;;;;;;;2.41;72.14;96552.66;4991108;28;20196;-84
2022/01/27 05:30:22;;;;;;;30.33;21.03;;;;;;;2.45;71.83;96548.19;4991862;28;20203;-83
2022/01/27 05:32:49;;;;;;;27.33;20.70;;;;;;;2.48;72.41;96548.00;4991269;28;20235;-83
2022/01/27 05:35:15;;;;;;;29.07;21.50;;;;;;;2.45;71.75;96543.94;4991657;28;20195;-83
2022/01/27 05:37:41;;;;;;;25.33;20.40;;;;;;;2.44;71.82;96552.47;4991533;28;20196;-83
2022/01/27 05:40:09;;;;;;;25.97;19.80;;;;;;;2.43;71.66;96546.56;4991721;28;20203;-83
2022/01/27 05:42:36;;;;;;;26.30;20.07;;;;;;;2.45;71.76;96554.09;4990777;28;20223;-84
2022/01/27 05:45:03;;;;;;;28.50;20.23;;;;;;;2.37;76.10;96544.44;4976194;28;20581;-84
2022/01/27 05:47:30;;;;;;;43.80;31.37;;;;;;;2.39;73.46;96547.69;4987806;28;20706;-83
2022/01/27 05:49:57;;;;;;;38.27;28.73;;;;;;;2.41;72.99;96547.59;4979618;28;20231;-84
2022/01/27 05:52:23;;;;;;;35.13;24.90;;;;;;;2.47;72.38;96557.34;4987204;28;20203;-83
2022/01/27 05:54:50;;;;;;;27.67;20.60;;;;;;;2.46;71.45;96553.19;4989092;28;20196;-83
2022/01/27 05:57:16;;;;;;;28.40;20.43;;;;;;;2.50;71.13;96554.59;4991481;28;20247;-83
2022/01/27 05:59:44;;;;;;;28.50;21.17;;;;;;;2.51;71.25;96548.56;4988806;28;20636;-83
2022/01/27 06:02:11;;;;;;;25.70;19.83;;;;;;;2.43;70.95;96549.13;4989296;28;20195;-84
2022/01/27 06:04:37;;;;;;;28.40;20.27;;;;;;;2.41;71.30;96543.31;4988705;28;20226;-84
2022/01/27 06:07:04;;;;;;;26.37;19.80;;;;;;;2.40;70.92;96540.88;4981934;28;20228;-83
2022/01/27 06:09:31;;;;;;;26.30;20.10;;;;;;;2.37;70.95;96536.00;4989326;28;20227;-84
2022/01/27 06:11:57;;;;;;;26.17;19.87;;;;;;;2.29;71.05;96539.06;4990133;28;20200;-84
2022/01/27 06:14:24;;;;;;;26.60;20.80;;;;;;;2.28;70.84;96539.97;4990953;28;20581;-83
2022/01/27 06:16:52;;;;;;;26.93;20.17;;;;;;;2.25;71.04;96539.38;4989119;28;20223;-84
2022/01/27 06:19:18;;;;;;;28.13;19.43;;;;;;;2.19;71.15;96529.59;4985654;28;20227;-84
2022/01/27 06:21:45;;;;;;;23.80;18.50;;;;;;;2.06;71.24;96520.25;4991370;28;20678;-84
2022/01/27 06:24:12;;;;;;;24.00;19.20;;;;;;;1.99;71.76;96520.75;4990381;28;20242;-84
2022/01/27 06:26:38;;;;;;;26.90;19.67;;;;;;;2.01;71.98;96524.81;4990140;28;20231;-84
2022/01/27 06:29:05;;;;;;;27.23;19.40;;;;;;;2.01;71.77;96527.38;4990101;28;20200;-84
2022/01/27 06:31:31;;;;;;;25.70;19.73;;;;;;;2.04;71.91;96536.50;4990273;28;20299;-83
2022/01/27 06:33:59;;;;;;;26.87;19.63;;;;;;;2.06;71.78;96532.97;4990217;28;20842;-82
2022/01/27 06:36:26;;;;;;;24.13;18.33;;;;;;;2.06;70.94;96524.53;4990284;28;20223;-83
2022/01/27 06:38:52;;;;;;;23.70;18.47;;;;;;;2.04;70.90;96532.25;4989857;28;20207;-81
2022/01/27 06:41:19;;;;;;;24.00;17.83;;;;;;;2.06;70.64;96524.53;4994273;28;20214;-84
2022/01/27 06:43:45;;;;;;;22.47;17.53;;;;;;;2.07;70.23;96532.03;4999554;28;20208;-83
2022/01/27 06:46:12;;;;;;;22.47;17.57;;;;;;;2.11;70.16;96531.84;4986319;28;20231;-83
2022/01/27 06:48:38;;;;;;;25.93;18.77;;;;;;;2.10;70.20;96533.56;4986271;28;20324;-83
2022/01/27 06:51:06;;;;;;;22.37;17.90;;;;;;;2.05;69.99;96527.97;4995091;28;20208;-83
2022/01/27 06:53:33;;;;;;;23.37;17.93;;;;;;;2.04;69.77;96532.25;4993543;28;20231;-83
2022/01/27 06:56:00;;;;;;;23.60;18.43;;;;;;;2.05;70.17;96521.16;4995155;28;20215;-83
2022/01/27 06:58:27;;;;;;;24.03;18.33;;;;;;;2.06;70.43;96521.97;4994798;28;20191;-85
2022/01/27 07:00:53;;;;;;;23.03;17.90;;;;;;;2.08;70.26;96526.06;4994002;28;20223;-83
2022/01/27 07:03:20;;;;;;;21.33;16.97;;;;;;;2.09;69.92;96516.72;4995495;28;20200;-83
2022/01/27 07:05:46;;;;;;;21.67;16.70;;;;;;;2.02;70.04;96523.91;4994281;28;20235;-84
2022/01/27 07:08:14;;;;;;;21.23;16.40;;;;;;;2.04;69.59;96521.28;4994333;28;20203;-83
2022/01/27 07:10:40;;;;;;;21.30;16.93;;;;;;;2.12;69.50;96526.63;4994167;28;20231;-83
2022/01/27 07:13:07;;;;;;;22.73;16.57;;;;;;;2.12;69.01;96521.56;4975577;28;20204;-85
2022/01/27 07:15:33;;;;;;;21.43;15.80;;;;;;;2.16;68.81;96517.09;4990475;28;20220;-84
2022/01/27 07:18:00;;;;;;;20.67;16.57;;;;;;;2.18;68.88;96512.72;4994173;28;20291;-85
2022/01/27 07:20:26;;;;;;;20.50;16.57;;;;;;;2.18;68.85;96513.53;4993671;28;20228;-84
2022/01/27 07:22:53;;;;;;;19.33;16.20;;;;;;;2.21;68.17;96523.50;4980858;28;20576;-83
2022/01/27 07:25:20;;;;;;;20.67;16.17;;;;;;;2.25;67.99;96524.94;4974193;28;20699;-84
2022/01/27 07:27:47;;;;;;;19.80;15.80;;;;;;;2.37;67.51;96524.09;4977538;28;20211;-84
2022/01/27 07:30:14;;;;;;;20.13;16.27;;;;;;;2.42;67.64;96519.53;4994167;28;20203;-84
2022/01/27 07:32:40;;;;;;;19.93;15.07;;;;;;;2.59;67.25;96517.56;4992289;28;20698;-84
2022/01/27 07:35:07;;;;;;;19.23;15.80;;;;;;;2.70;66.90;96515.09;4980069;28;20200;-84
2022/01/27 07:37:34;;;;;;;18.03;15.23;;;;;;;2.75;66.33;96516.41;4975224;28;20207;-84
2022/01/27 07:40:00;;;;;;;18.07;14.40;;;;;;;2.91;66.05;96515.34;4994507;28;20207;-84
2022/01/27 07:42:28;;;;;;;18.40;15.23;;;;;;;3.00;65.32;96512.19;4993655;28;20682;-85
2022/01/27 07:44:54;;;;;;;19.10;15.03;;;;;;;3.19;64.85;96506.59;4994394;28;20231;-85
2022/01/27 07:47:21;;;;;;;18.47;14.90;;;;;;;3.41;64.84;96504.97;4993903;28;20606;-85
2022/01/27 07:49:47;;;;;;;17.80;14.10;;;;;;;3.66;63.05;96504.00;4994316;28;20199;-84
2022/01/27 07:52:14;;;;;;;18.67;14.30;;;;;;;3.90;62.86;96518.44;4993958;28;20203;-85
2022/01/27 07:54:40;;;;;;;17.50;14.70;;;;;;;4.11;62.43;96520.22;4992251;28;20227;-85
2022/01/27 07:57:07;;;;;;;17.63;13.87;;;;;;;4.28;61.98;96513.84;4993783;28;20238;-84
2022/01/27 07:59:34;;;;;;;15.20;12.90;;;;;;;4.38;61.29;96516.53;4994528;28;20211;-85
2022/01/27 08:02:01;;;;;;;15.77;13.40;;;;;;;4.42;60.56;96518.75;4994276;28;20215;-84
2022/01/27 08:04:27;;;;;;;17.00;13.97;;;;;;;4.61;60.39;96510.50;4993814;28;20227;-84
2022/01/27 08:09:25;;;;;;;16.53;13.17;;;;;;;4.93;58.83;96507.22;4970746;28;20208;-80
2022/01/27 08:11:51;;;;;;;16.07;13.40;;;;;;;5.05;59.00;96508.81;4975665;28;20277;-83
2022/01/27 08:14:18;;;;;;;15.10;13.00;;;;;;;5.14;58.08;96510.66;4972995;28;20216;-82
2022/01/27 08:16:46;;;;;;;12.87;11.53;;;;;;;5.26;57.77;96499.47;4989370;28;20191;-80
2022/01/27 08:19:12;;;;;;;15.53;12.40;;;;;;;5.30;57.40;96502.59;4977320;28;20229;-80
2022/01/27 08:21:39;;;;;;;16.83;12.70;;;;;;;5.28;56.67;96504.44;4989969;28;20870;-80
2022/01/27 08:24:06;;;;;;;13.13;11.60;;;;;;;5.33;57.40;96510.81;4975140;28;20211;-80
2022/01/27 08:26:37;;;;;;;14.07;12.57;;;;;;;5.45;56.96;96501.38;4966317;28;20235;-80
2022/01/27 08:29:14;;;;;;;13.60;11.40;;;;;;;5.47;56.21;96499.50;4961739;28;20331;-81
2022/01/27 08:31:56;;;;;;;13.67;10.90;;;;;;;5.34;56.16;96491.22;4960363;28;20744;-81
2022/01/27 08:34:31;;;;;;;13.70;11.07;;;;;;;5.41;56.60;96500.78;4958719;28;20699;-80
2022/01/27 08:36:59;;;;;;;12.10;10.83;;;;;;;5.53;55.82;96494.72;4973163;28;20234;-80
2022/01/27 08:39:26;;;;;;;13.37;11.30;;;;;;;5.64;56.03;96486.19;4974712;28;20204;-80
2022/01/27 08:41:53;;;;;;;13.20;10.40;;;;;;;5.75;55.27;96487.91;4974892;28;20211;-80
2022/01/27 08:44:20;;;;;;;18.13;11.00;;;;;;;5.77;54.83;96496.25;4973920;28;20215;-82
2022/01/27 08:46:46;;;;;;;10.83;9.20;;;;;;;6.00;54.46;96504.59;4973151;28;20238;-79
2022/01/27 08:49:13;;;;;;;11.27;9.97;;;;;;;6.16;54.52;96504.97;4959739;28;20312;-80
2022/01/27 08:51:42;;;;;;;11.47;10.27;;;;;;;6.24;54.34;96493.19;4954738;29;20208;-80
2022/01/27 08:54:08;;;;;;;10.93;9.60;;;;;;;6.38;53.53;96492.03;4955457;29;20580;-80
2022/01/27 08:56:35;;;;;;;12.33;9.17;;;;;;;6.48;53.08;96489.50;4965005;28;20228;-80
2022/01/27 08:59:01;;;;;;;11.40;8.97;;;;;;;6.62;52.43;96496.84;4967566;28;20228;-80
2022/01/27 09:01:28;;;;;;;10.93;8.30;;;;;;;6.88;52.97;96492.06;4953968;28;20209;-80
2022/01/27 09:03:55;;;;;;;9.60;8.40;;;;;;;7.02;52.26;96491.69;4955083;29;20207;-80
2022/01/27 09:06:21;;;;;;;9.30;8.30;;;;;;;7.11;52.34;96490.91;4963265;28;20227;-80
2022/01/27 09:08:52;;;;;;;9.67;7.67;;;;;;;7.23;50.59;96487.28;4973097;28;20224;-80
2022/01/27 09:11:19;;;;;;;8.83;7.93;;;;;;;7.38;50.95;96487.69;4973487;28;20255;-80
2022/01/27 09:13:45;;;;;;;9.50;8.33;;;;;;;7.59;50.44;96479.84;4973251;28;20286;-80
2022/01/27 09:16:12;;;;;;;7.73;6.83;;;;;;;7.76;49.90;96481.72;4973131;28;20757;-80
2022/01/27 09:18:39;;;;;;;7.90;6.77;;;;;;;7.80;48.72;96485.66;4972710;28;20630;-80
2022/01/27 09:21:10;;;;;;;8.27;6.90;;;;;;;7.81;48.62;96474.44;4973533;28;20211;-80
2022/01/27 09:23:37;;;;;;;7.80;6.50;;;;;;;7.78;47.95;96469.59;4974170;28;20299;-80
2022/01/27 09:26:09;;;;;;;7.10;5.87;;;;;;;7.64;47.64;96467.44;4965148;28;20243;-80
2022/01/27 09:28:35;;;;;;;9.03;5.80;;;;;;;7.68;47.85;96458.56;4972910;28;20663;-80
2022/01/27 09:31:02;;;;;;;7.83;5.77;;;;;;;7.79;47.52;96466.06;4973432;28;20587;-80
2022/01/27 09:33:30;;;;;;;10.67;5.47;;;;;;;8.04;47.50;96463.88;4973176;28;20204;-80
2022/01/27 09:35:56;;;;;;;6.43;5.17;;;;;;;8.08;45.60;96466.00;4973369;28;20200;-81
2022/01/27 09:38:23;;;;;;;5.50;4.23;;;;;;;8.10;44.88;96465.88;4973020;28;20226;-80
2022/01/27 09:40:51;;;;;;;8.63;5.43;;;;;;;8.13;44.67;96465.59;4955051;28;20236;-80
2022/01/27 09:43:19;;;;;;;7.80;4.93;;;;;;;8.39;44.28;96458.94;4960159;28;20247;-80
2022/01/27 09:45:47;;;;;;;9.27;4.53;;;;;;;8.70;44.30;96462.00;4974151;28;20232;-80
2022/01/27 09:48:16;;;;;;;9.37;4.27;;;;;;;8.87;42.74;96458.66;4973243;28;20618;-80
2022/01/27 09:51:00;;;;;;;9.90;4.50;;;;;;;9.10;42.50;96461.66;4971740;28;20238;-80
2022/01/27 09:53:27;;;;;;;9.63;4.20;;;;;;;9.22;43.11;96459.69;4973735;28;20614;-80
2022/01/27 09:55:53;;;;;;;6.93;4.30;;;;;;;9.28;42.45;96459.88;4973648;28;20208;-80
2022/01/27 09:58:21;;;;;;;7.37;4.80;;;;;;;9.37;42.33;96453.06;4973477;28;20235;-80
2022/01/27 10:00:47;;;;;;;8.47;3.83;;;;;;;9.39;41.78;96453.75;4972388;28;20278;-80
2022/01/27 10:03:16;;;;;;;5.20;3.57;;;;;;;9.46;40.67;96447.03;4973657;28;20212;-80
2022/01/27 10:05:44;;;;;;;11.10;4.67;;;;;;;9.39;40.83;96434.94;4973253;28;20259;-80
2022/01/27 10:08:15;;;;;;;5.63;3.60;;;;;;;9.40;41.40;96439.94;4971913;28;20224;-80
2022/01/27 10:10:43;;;;;;;7.87;3.40;;;;;;;9.25;40.40;96433.66;4972443;28;20235;-80
2022/01/27 10:13:11;;;;;;;4.40;3.70;;;;;;;9.33;40.40;96434.56;4973015;28;20207;-80
2022/01/27 10:15:41;;;;;;;5.73;3.17;;;;;;;9.37;39.97;96421.44;4977382;28;20208;-80
2022/01/27 10:18:11;;;;;;;5.33;3.67;;;;;;;9.52;40.86;96422.50;4978076;28;20315;-80
2022/01/27 10:20:39;;;;;;;6.70;3.50;;;;;;;9.68;41.23;96422.63;4977264;28;20232;-80
2022/01/27 10:23:11;;;;;;;4.90;3.43;;;;;;;9.81;40.68;96420.47;4978051;28;20848;-81
2022/01/27 10:25:46;;;;;;;4.77;3.20;;;;;;;9.97;40.43;96418.00;4977806;28;20254;-80
2022/01/27 10:28:25;;;;;;;6.33;3.20;;;;;;;10.03;39.86;96416.56;4976898;28;20874;-81
2022/01/27 10:31:01;;;;;;;3.43;2.83;;;;;;;10.10;39.53;96417.56;4975429;28;20619;-81
2022/01/27 10:33:29;;;;;;;3.67;2.90;;;;;;;10.10;38.49;96406.47;4977320;28;20223;-80
2022/01/27 10:35:56;;;;;;;4.37;2.97;;;;;;;10.17;38.81;96413.44;4977187;28;20208;-80
2022/01/27 10:38:22;;;;;;;4.10;2.57;;;;;;;10.20;39.07;96409.78;4976654;28;20235;-81
2022/01/27 10:40:49;;;;;;;7.23;2.63;;;;;;;10.29;37.98;96414.81;4955191;28;20235;-81
2022/01/27 10:43:17;;;;;;;6.87;2.93;;;;;;;10.42;37.76;96411.78;4978108;28;20204;-81
2022/01/27 10:46:08;;;;;;;7.10;2.80;;;;;;;10.39;37.23;96414.72;4979857;28;20232;-81
2022/01/27 10:48:40;;;;;;;4.20;2.43;;;;;;;10.24;36.83;96399.00;4976990;28;20251;-80
2022/01/27 10:51:12;;;;;;;3.90;2.23;;;;;;;10.26;37.11;96404.00;4977462;28;20699;-81
2022/01/27 10:53:54;;;;;;;3.73;2.73;;;;;;;10.25;36.73;96399.81;4974829;28;20220;-81
2022/01/27 10:56:23;;;;;;;3.13;2.53;;;;;;;10.31;36.73;96407.75;4977459;28;20231;-81
2022/01/27 10:58:50;;;;;;;4.47;2.87;;;;;;;10.41;37.73;96399.06;4969791;28;20224;-81
2022/01/27 11:01:26;;;;;;;4.53;2.00;;;;;;;10.45;36.62;96406.34;4968709;28;20205;-82
2022/01/27 11:03:54;;;;;;;3.70;2.17;;;;;;;10.49;36.77;96402.50;4961378;28;20231;-81
2022/01/27 11:06:23;;;;;;;4.30;1.97;;;;;;;10.44;36.67;96399.59;4974546;28;20279;-82
2022/01/27 11:08:54;;;;;;;2.80;2.10;;;;;;;10.49;36.60;96397.34;4971289;28;20228;-81
2022/01/27 11:11:22;;;;;;;5.30;2.00;;;;;;;10.60;36.60;96383.38;4969830;28;20192;-81
2022/01/27 11:13:49;;;;;;;3.53;2.00;;;;;;;10.82;36.35;96394.84;4974639;28;20235;-81
2022/01/27 11:16:18;;;;;;;3.23;2.00;;;;;;;10.91;36.71;96388.78;4967774;28;20189;-81
2022/01/27 11:18:47;;;;;;;3.60;2.40;;;;;;;10.89;36.51;96381.19;4955909;29;20240;-81
2022/01/27 11:21:27;;;;;;;4.90;2.40;;;;;;;10.89;36.64;96378.63;4966526;28;20562;-81
2022/01/27 11:24:04;;;;;;;3.80;2.00;;;;;;;10.87;35.63;96377.16;4956622;28;20224;-81
2022/01/27 11:26:31;;;;;;;3.60;2.03;;;;;;;10.79;36.46;96374.56;4959697;28;20268;-81
2022/01/27 11:28:59;;;;;;;2.60;2.40;;;;;;;10.56;35.83;96364.06;4972941;28;20307;-81
2022/01/27 11:31:44;;;;;;;3.73;2.33;;;;;;;10.53;36.56;96367.75;4969386;28;20578;-81
2022/01/27 11:34:12;;;;;;;3.00;2.10;;;;;;;10.63;36.11;96368.41;4965762;28;20647;-81
2022/01/27 11:36:39;;;;;;;3.70;2.60;;;;;;;10.71;35.55;96352.19;4957316;28;20193;-81
2022/01/27 11:39:11;;;;;;;3.07;2.67;;;;;;;10.82;38.32;96362.19;4965586;28;20318;-78
2022/01/27 11:41:42;;;;;;;3.87;2.70;;;;;;;11.01;39.45;96366.22;4958400;28;20220;-79
2022/01/27 11:44:26;;;;;;;4.10;2.80;;;;;;;11.15;40.36;96352.72;4965626;28;20227;-79
2022/01/27 11:47:22;;;;;;;5.77;2.50;;;;;;;11.18;35.47;96356.72;4956244;28;20221;-82
2022/01/27 11:50:04;;;;;;;5.47;2.60;;;;;;;11.01;35.11;96351.56;4960340;28;20285;-81
2022/01/27 11:52:33;;;;;;;3.77;2.60;;;;;;;11.05;35.93;96352.06;4965114;28;20204;-81
2022/01/27 11:55:43;;;;;;;4.13;3.00;;;;;;;10.99;34.66;96344.97;4969603;28;20258;-81
2022/01/27 11:58:19;;;;;;;4.37;2.80;;;;;;;10.95;35.99;96341.13;4968199;28;20220;-81
2022/01/27 12:01:10;;;;;;;4.17;2.87;;;;;;;10.72;34.92;96340.94;4974219;28;20204;-81
2022/01/27 12:03:38;;;;;;;3.10;2.50;;;;;;;10.73;36.09;96332.22;4974472;28;20287;-81
2022/01/27 12:06:24;;;;;;;5.43;2.80;;;;;;;10.79;35.10;96343.66;4973787;28;20208;-80